Time;durP1;ratioP1;P1;durP2;ratioP2;P2;SDS_P1;SDS_P2;PMS_P1;PMS_P2;Temp;Humidity;BMP_temperature;BMP_pressure;BME280_temperature;BME280_humidity;BME280_pressure;Samples;Min_cycle;Max_cycle;Signal;HPM_P1;HPM_P2
2022/01/26 00:00:55;;;;;;;9.10;6.47;;;;;;;4.86;71.41;101427.31;4963485;28;96949;-88
2022/01/26 00:06:10;;;;;;;8.77;6.20;;;;;;;4.76;70.94;101396.88;4956043;28;101276;-87
2022/01/26 00:08:37;;;;;;;10.30;6.57;;;;;;;4.84;70.99;101416.00;4943224;28;101193;-88
2022/01/26 00:11:02;;;;;;;10.03;6.80;;;;;;;4.79;71.31;101407.28;4944995;28;96771;-87
2022/01/26 00:13:28;;;;;;;8.47;6.27;;;;;;;4.81;71.76;101412.53;4940346;28;97028;-87
2022/01/26 00:15:55;;;;;;;9.07;5.83;;;;;;;4.76;71.09;101405.53;4919398;28;101337;-87
2022/01/26 00:18:22;;;;;;;11.57;6.77;;;;;;;4.76;71.25;101396.88;4908444;28;100034;-88
2022/01/26 00:20:59;;;;;;;9.93;6.40;;;;;;;4.81;71.17;101402.97;4917640;28;97471;-88
2022/01/26 00:26:23;;;;;;;11.93;6.47;;;;;;;4.79;70.80;101394.28;4944958;28;101614;-87
2022/01/26 00:39:36;;;;;;;10.67;7.03;;;;;;;4.72;70.52;101406.38;4942388;28;97183;-87
2022/01/26 00:42:02;;;;;;;8.50;5.43;;;;;;;4.66;70.57;101401.16;4933803;28;97543;-89
2022/01/26 00:44:36;;;;;;;9.87;6.50;;;;;;;4.73;71.02;101400.31;4947905;28;97187;-87
2022/01/26 00:47:02;;;;;;;9.63;6.20;;;;;;;4.55;70.75;101366.38;4920715;28;100658;-88
2022/01/26 00:49:28;;;;;;;10.57;6.27;;;;;;;4.68;70.80;101399.44;4950464;28;101327;-88
2022/01/26 00:51:54;;;;;;;8.30;5.73;;;;;;;4.70;70.73;101397.69;4948084;28;96800;-88
2022/01/26 00:54:20;;;;;;;10.30;6.30;;;;;;;4.48;70.42;101356.78;4967514;28;97156;-87
2022/01/26 00:56:46;;;;;;;10.37;6.70;;;;;;;4.69;70.54;101388.16;4950816;28;98082;-87
2022/01/26 00:59:12;;;;;;;8.73;6.13;;;;;;;4.72;70.58;101388.19;4950885;28;97329;-88
2022/01/26 01:01:38;;;;;;;10.33;7.13;;;;;;;4.73;70.47;101391.66;4963872;28;96815;-87
2022/01/26 01:04:04;;;;;;;13.67;7.67;;;;;;;4.59;70.64;101373.34;4926256;28;96873;-88
2022/01/26 01:06:42;;;;;;;9.90;7.53;;;;;;;4.67;70.39;101370.81;4933874;28;101389;-87
2022/01/26 01:09:08;;;;;;;11.37;7.80;;;;;;;4.60;70.26;101364.69;4950533;28;98422;-87
2022/01/26 01:11:33;;;;;;;12.87;7.43;;;;;;;4.73;70.16;101376.91;4950632;28;97381;-88
2022/01/26 01:13:59;;;;;;;10.83;7.40;;;;;;;4.72;70.13;101382.97;4917187;28;96793;-87
2022/01/26 01:16:25;;;;;;;10.23;6.47;;;;;;;4.64;70.35;101378.59;4947029;28;100667;-87
2022/01/26 01:19:10;;;;;;;9.37;6.53;;;;;;;4.72;70.52;101374.31;4968049;28;101570;-88
2022/01/26 01:24:49;;;;;;;11.40;7.27;;;;;;;4.68;70.47;101370.81;4957384;28;97027;-87
2022/01/26 01:29:44;;;;;;;11.00;7.43;;;;;;;4.67;70.91;101373.41;4939113;28;99906;-88
2022/01/26 01:32:28;;;;;;;8.27;6.40;;;;;;;4.71;70.52;101375.16;4947049;28;97300;-88
2022/01/26 01:34:53;;;;;;;10.80;7.60;;;;;;;4.67;70.75;101365.59;4944663;28;97095;-91
2022/01/26 01:37:19;;;;;;;13.03;7.97;;;;;;;4.71;70.26;101370.84;4925325;28;101918;-88
2022/01/26 01:39:44;;;;;;;11.17;7.57;;;;;;;4.63;70.19;101359.50;4977673;28;101261;-88
2022/01/26 01:42:10;;;;;;;10.23;7.27;;;;;;;4.65;70.90;101367.31;4977999;28;97276;-87
2022/01/26 01:44:36;;;;;;;11.80;7.90;;;;;;;4.52;70.85;101338.63;4958708;28;96805;-88
2022/01/26 01:47:03;;;;;;;10.90;7.50;;;;;;;4.59;71.07;101360.34;4949961;28;98013;-87
2022/01/26 01:49:29;;;;;;;9.97;7.27;;;;;;;4.67;70.75;101371.66;4923066;28;97016;-88
2022/01/26 01:51:59;;;;;;;11.30;7.43;;;;;;;4.66;70.92;101358.66;4932049;28;96865;-92
2022/01/26 01:54:25;;;;;;;11.83;7.63;;;;;;;4.76;70.88;101360.44;4951546;28;97067;-87
2022/01/26 01:56:55;;;;;;;9.60;7.00;;;;;;;4.72;70.79;101361.31;4956671;28;98602;-88
2022/01/26 01:59:25;;;;;;;10.43;7.40;;;;;;;4.58;70.73;101339.53;4928828;28;101907;-88
2022/01/26 02:01:51;;;;;;;13.83;8.40;;;;;;;4.75;70.71;101356.13;4962179;28;97397;-89
2022/01/26 02:04:17;;;;;;;12.47;8.23;;;;;;;4.73;70.56;101363.91;4952048;28;96753;-89
2022/01/26 02:06:43;;;;;;;10.73;7.17;;;;;;;4.64;70.81;101360.38;4919495;28;101637;-88
2022/01/26 02:09:10;;;;;;;12.00;7.80;;;;;;;4.57;71.21;101348.16;4940684;28;101198;-87
2022/01/26 02:11:46;;;;;;;11.87;8.53;;;;;;;4.70;71.14;101365.63;4946545;28;97327;-90
2022/01/26 02:14:19;;;;;;;13.30;8.27;;;;;;;4.75;71.12;101366.53;4979290;28;96853;-88
2022/01/26 02:16:56;;;;;;;13.73;8.93;;;;;;;4.76;70.77;101361.31;4946025;28;101654;-87
2022/01/26 02:20:23;;;;;;;12.73;8.47;;;;;;;4.56;70.86;101323.03;4935166;28;101646;-87
2022/01/26 02:57:50;;;;;;;11.67;7.90;;;;;;;4.58;70.27;101336.94;4952526;28;96901;-88
2022/01/26 03:01:05;;;;;;;12.13;8.87;;;;;;;4.61;71.12;101339.56;4969599;28;97726;-87
2022/01/26 03:03:43;;;;;;;11.70;8.73;;;;;;;4.45;70.95;101316.06;4950083;28;101516;-88
2022/01/26 03:06:02;;;;;;;13.40;8.70;;;;;;;4.64;70.58;101329.16;4957664;28;96989;-88
2022/01/26 03:08:36;;;;;;;11.23;8.02;;;;;;;4.62;70.96;101331.75;4982964;28;97036;-87
2022/01/26 03:11:08;;;;;;;12.77;7.70;;;;;;;4.59;70.78;101328.25;4969808;28;98335;-87
2022/01/26 03:13:38;;;;;;;10.83;7.80;;;;;;;4.59;70.88;101331.72;4943665;28;101128;-88
2022/01/26 03:16:28;;;;;;;12.00;7.50;;;;;;;4.67;70.82;101340.44;4962308;28;97945;-87
2022/01/26 03:19:03;;;;;;;11.40;7.47;;;;;;;4.65;71.13;101341.28;4949883;28;97091;-87
2022/01/26 03:21:38;;;;;;;11.40;7.87;;;;;;;4.62;70.78;101318.75;4935061;28;101241;-87
2022/01/26 03:34:29;;;;;;;9.67;7.17;;;;;;;4.67;71.24;101331.78;4960741;28;101369;-87
2022/01/26 03:36:59;;;;;;;12.40;8.57;;;;;;;4.64;71.13;101332.63;4968640;28;96958;-87
2022/01/26 03:39:26;;;;;;;11.47;7.20;;;;;;;4.63;71.35;101333.50;4943235;28;97278;-87
2022/01/26 03:44:21;;;;;;;11.70;7.90;;;;;;;4.54;71.55;101328.25;4949216;28;97478;-87
2022/01/26 03:46:49;;;;;;;14.37;8.40;;;;;;;4.64;71.61;101344.78;4930352;28;96757;-86
2022/01/26 03:49:15;;;;;;;16.03;9.80;;;;;;;4.65;71.45;101341.28;4967679;28;97086;-87
2022/01/26 03:51:41;;;;;;;11.70;8.87;;;;;;;4.56;71.58;101330.84;4952418;28;97885;-87
2022/01/26 03:54:08;;;;;;;12.40;7.77;;;;;;;4.60;71.66;101343.88;4934750;28;100514;-87
2022/01/26 03:56:34;;;;;;;9.43;6.77;;;;;;;4.64;71.55;101344.78;4951189;28;97172;-87
2022/01/26 03:59:00;;;;;;;11.43;7.83;;;;;;;4.64;71.91;101352.56;4919742;28;97305;-90
2022/01/26 04:01:26;;;;;;;10.77;7.10;;;;;;;4.60;71.46;101341.28;4968266;28;98318;-87
2022/01/26 04:03:51;;;;;;;15.00;7.30;;;;;;;4.67;71.43;101350.00;4932176;28;101218;-87
2022/01/26 04:06:18;;;;;;;11.00;7.57;;;;;;;4.57;71.13;101332.56;4961068;28;97196;-88
2022/01/26 04:08:45;;;;;;;11.37;7.23;;;;;;;4.66;71.37;101343.06;4935597;28;96967;-87
2022/01/26 04:13:37;;;;;;;11.53;7.87;;;;;;;4.70;71.37;101356.06;4939416;28;101522;-88
2022/01/26 04:16:04;;;;;;;10.27;7.20;;;;;;;4.59;71.34;101346.47;4928431;28;96819;-89
2022/01/26 04:18:35;;;;;;;10.70;7.27;;;;;;;4.67;71.35;101360.41;4965244;28;97024;-87
2022/01/26 04:21:13;;;;;;;12.43;8.03;;;;;;;4.51;71.50;101341.22;4967014;28;100036;-90
2022/01/26 04:23:53;;;;;;;10.53;7.80;;;;;;;4.48;71.75;101331.69;4952019;28;98089;-87
2022/01/26 04:26:25;;;;;;;12.40;6.90;;;;;;;4.60;71.80;101346.50;4943621;28;97224;-88
2022/01/26 04:28:56;;;;;;;10.93;7.88;;;;;;;4.67;71.12;101352.59;4919636;28;96847;-87
2022/01/26 04:31:22;;;;;;;12.23;7.57;;;;;;;4.44;71.16;101311.69;4935131;28;97359;-87
2022/01/26 04:33:49;;;;;;;10.70;7.40;;;;;;;4.62;71.01;101339.53;4918333;28;101240;-87
2022/01/26 04:36:21;;;;;;;10.47;6.73;;;;;;;4.65;71.55;101343.91;4934709;28;96670;-88
2022/01/26 04:38:52;;;;;;;10.80;6.83;;;;;;;4.58;71.05;101343.00;4935503;28;96820;-87
2022/01/26 04:43:50;;;;;;;11.53;7.00;;;;;;;4.53;71.69;101348.16;4952604;28;101967;-87
2022/01/26 04:46:15;;;;;;;11.27;7.17;;;;;;;4.61;71.12;101340.41;4948565;28;96715;-87
2022/01/26 04:48:41;;;;;;;12.70;7.60;;;;;;;4.62;71.26;101334.34;4945997;28;97331;-87
2022/01/26 04:51:06;;;;;;;13.10;8.10;;;;;;;4.59;71.31;101330.84;4934486;28;101789;-88
2022/01/26 04:53:32;;;;;;;11.80;7.43;;;;;;;4.22;71.92;101278.63;4955059;28;97098;-88
2022/01/26 04:55:58;;;;;;;11.70;7.93;;;;;;;4.41;71.58;101310.81;4934349;28;97876;-88
2022/01/26 04:58:23;;;;;;;13.30;7.47;;;;;;;4.56;71.79;101334.31;4963691;28;97023;-88
2022/01/26 05:00:49;;;;;;;10.67;7.30;;;;;;;4.61;71.65;101332.63;4946817;28;100763;-87
2022/01/26 05:03:14;;;;;;;11.30;7.30;;;;;;;4.60;71.31;101322.22;4966474;28;97909;-87
2022/01/26 05:05:40;;;;;;;11.50;7.43;;;;;;;4.63;71.34;101327.44;4966971;28;96701;-87
2022/01/26 05:08:06;;;;;;;12.37;8.10;;;;;;;4.62;71.67;101330.88;4946881;28;97144;-88
2022/01/26 05:10:31;;;;;;;10.97;7.60;;;;;;;4.61;71.45;101324.81;4934067;28;101234;-89
2022/01/26 05:12:57;;;;;;;12.17;7.63;;;;;;;4.63;71.47;101317.91;4963591;28;97875;-87
2022/01/26 05:15:24;;;;;;;11.00;7.50;;;;;;;4.62;71.22;101315.28;4926658;28;96776;-87
2022/01/26 05:17:50;;;;;;;9.43;6.97;;;;;;;4.58;71.53;101317.00;4950981;28;96736;-87
2022/01/26 05:20:16;;;;;;;11.73;7.97;;;;;;;4.52;71.65;101296.16;4932911;28;98566;-88
2022/01/26 05:22:44;;;;;;;13.33;8.07;;;;;;;4.63;71.46;101315.31;4946365;28;101206;-88
2022/01/26 05:25:10;;;;;;;12.37;7.63;;;;;;;4.64;71.67;101305.75;4965921;28;97045;-87
2022/01/26 05:27:36;;;;;;;13.10;7.83;;;;;;;4.66;71.09;101315.31;4917699;28;97815;-87
2022/01/26 05:30:03;;;;;;;12.17;7.37;;;;;;;4.65;71.24;101307.47;4947067;28;100782;-88
2022/01/26 05:32:29;;;;;;;11.53;7.17;;;;;;;4.58;71.27;101297.91;4946670;28;101938;-87
2022/01/26 05:34:54;;;;;;;11.10;6.77;;;;;;;4.67;71.31;101298.84;4950397;28;96975;-87
2022/01/26 05:37:21;;;;;;;11.97;7.63;;;;;;;4.54;71.35;101274.50;4916698;28;96923;-87
2022/01/26 05:39:46;;;;;;;12.73;7.20;;;;;;;4.65;71.46;101291.88;4949215;28;98465;-88
2022/01/26 05:42:12;;;;;;;9.17;6.07;;;;;;;4.68;71.07;101292.78;4929209;28;101779;-87
2022/01/26 05:44:37;;;;;;;12.03;7.07;;;;;;;4.52;71.19;101272.75;4966081;28;97957;-87
2022/01/26 05:47:06;;;;;;;11.80;7.27;;;;;;;4.62;71.26;101281.47;4917746;28;97181;-87
2022/01/26 05:49:31;;;;;;;10.13;6.70;;;;;;;4.60;71.58;101289.28;4946765;28;101294;-87
2022/01/26 05:51:57;;;;;;;11.53;7.33;;;;;;;4.50;71.70;101277.06;4930577;28;101182;-88
2022/01/26 05:54:22;;;;;;;9.07;5.87;;;;;;;4.52;71.60;101271.00;4949293;28;97022;-88
2022/01/26 05:56:48;;;;;;;12.77;7.10;;;;;;;4.59;71.53;101286.66;4946274;28;96875;-87
2022/01/26 05:59:20;;;;;;;7.87;5.33;;;;;;;4.65;71.39;101284.94;4951675;28;98492;-87
2022/01/26 06:01:46;;;;;;;10.88;6.60;;;;;;;4.61;71.34;101285.81;4930329;28;100910;-87
2022/01/26 06:04:12;;;;;;;8.37;5.53;;;;;;;4.65;71.17;101295.34;4967047;28;97008;-87
2022/01/26 06:06:37;;;;;;;9.10;5.57;;;;;;;4.56;71.52;101290.09;4943101;28;96898;-87
2022/01/26 06:09:03;;;;;;;9.17;5.87;;;;;;;4.58;71.57;101295.31;4931868;28;101361;-86
2022/01/26 06:11:29;;;;;;;9.53;6.07;;;;;;;4.41;71.71;101270.06;4931580;28;102072;-88
2022/01/26 06:13:55;;;;;;;10.50;5.73;;;;;;;4.53;71.58;101296.16;4924885;28;97534;-87
2022/01/26 06:16:21;;;;;;;10.70;6.03;;;;;;;4.48;71.30;101290.06;4926197;28;97358;-87
2022/01/26 06:18:47;;;;;;;10.03;6.17;;;;;;;4.54;71.43;101287.50;4931087;28;98541;-87
2022/01/26 06:21:13;;;;;;;9.77;6.00;;;;;;;4.47;71.41;101277.91;4980699;28;101516;-87
2022/01/26 06:23:38;;;;;;;10.47;6.50;;;;;;;4.57;71.73;101296.16;4929510;28;96838;-87
2022/01/26 06:26:04;;;;;;;8.90;6.60;;;;;;;4.51;71.57;101284.88;4927905;28;97824;-92
2022/01/26 06:28:30;;;;;;;11.10;6.60;;;;;;;4.59;71.24;101291.84;4949690;28;98277;-87
2022/01/26 06:30:59;;;;;;;10.30;6.50;;;;;;;4.46;71.61;101264.91;4946658;28;99186;-88
2022/01/26 06:33:26;;;;;;;11.23;6.50;;;;;;;4.55;71.66;101285.78;4950597;28;97265;-87
2022/01/26 06:35:52;;;;;;;11.27;6.30;;;;;;;4.44;71.35;101274.44;4937850;28;97502;-88
2022/01/26 06:38:17;;;;;;;12.30;7.50;;;;;;;4.58;71.73;101290.97;4967305;28;101067;-87
2022/01/26 06:40:43;;;;;;;13.27;7.47;;;;;;;4.59;71.37;101287.50;4948517;28;98114;-87
2022/01/26 06:43:12;;;;;;;13.30;7.47;;;;;;;4.48;71.80;101281.38;4966586;28;97345;-87
2022/01/26 06:45:47;;;;;;;13.90;7.63;;;;;;;4.48;71.45;101257.97;4933085;28;97230;-87
2022/01/26 06:48:38;;;;;;;12.90;7.70;;;;;;;4.47;71.15;101264.91;4950952;28;98015;-89
2022/01/26 06:50:59;;;;;;;11.93;7.63;;;;;;;4.59;71.56;101279.72;4959389;28;100349;-87
2022/01/26 06:53:26;;;;;;;14.17;8.17;;;;;;;4.44;71.69;101259.69;4945316;28;96788;-91
2022/01/26 06:55:51;;;;;;;14.50;9.20;;;;;;;4.44;71.81;101262.28;4940813;28;96940;-87
2022/01/26 06:58:17;;;;;;;14.53;9.23;;;;;;;4.61;71.13;101282.34;4962708;28;101328;-87
2022/01/26 07:00:43;;;;;;;14.00;8.07;;;;;;;4.65;71.57;101290.16;4973180;28;98097;-87
2022/01/26 07:03:09;;;;;;;13.80;8.50;;;;;;;4.62;71.26;101271.94;4965831;28;96878;-90
2022/01/26 07:05:34;;;;;;;14.60;9.27;;;;;;;4.54;71.69;101271.03;4983352;28;97977;-88
2022/01/26 07:08:01;;;;;;;14.47;9.87;;;;;;;4.52;71.50;101254.53;4965703;28;97596;-88
2022/01/26 07:10:27;;;;;;;16.73;10.00;;;;;;;4.61;71.73;101274.53;4945437;28;101773;-87
2022/01/26 07:12:53;;;;;;;16.70;9.83;;;;;;;4.62;71.85;101279.72;4952550;28;97388;-86
2022/01/26 07:23:26;;;;;;;18.00;10.37;;;;;;;4.50;71.45;101259.72;4939375;28;96815;-88
2022/01/26 07:25:52;;;;;;;17.00;10.37;;;;;;;4.68;71.37;101287.59;4937501;28;97673;-87
2022/01/26 07:28:17;;;;;;;17.30;10.80;;;;;;;4.38;71.58;101238.00;4958467;28;98147;-87
2022/01/26 07:30:43;;;;;;;21.30;11.30;;;;;;;4.63;71.46;101289.28;4955714;28;96973;-88
2022/01/26 07:33:09;;;;;;;17.97;10.83;;;;;;;4.64;71.71;101292.75;4982615;28;97153;-88
2022/01/26 07:35:35;;;;;;;16.97;10.90;;;;;;;4.53;71.76;101264.06;4950957;28;96828;-87
2022/01/26 07:38:02;;;;;;;17.63;11.03;;;;;;;4.62;71.42;101278.88;4940559;28;101104;-89
2022/01/26 07:40:28;;;;;;;23.87;13.23;;;;;;;4.66;71.80;101291.03;4940195;28;101457;-88
2022/01/26 07:42:54;;;;;;;22.50;11.83;;;;;;;4.54;71.41;101271.91;4957498;28;96825;-87
2022/01/26 07:45:20;;;;;;;19.40;11.00;;;;;;;4.58;71.59;101287.53;4945748;28;97435;-87
2022/01/26 07:47:47;;;;;;;19.67;11.57;;;;;;;4.67;72.22;101305.78;4961052;28;101400;-90
2022/01/26 07:50:15;;;;;;;20.50;11.20;;;;;;;4.53;72.37;101296.16;4949351;28;99980;-83
2022/01/26 07:52:42;;;;;;;22.57;12.40;;;;;;;4.61;72.31;101296.19;4964517;28;97253;-89
2022/01/26 07:55:11;;;;;;;24.27;12.33;;;;;;;4.58;72.05;101280.59;4973609;28;96877;-92
2022/01/26 07:57:36;;;;;;;23.90;12.07;;;;;;;4.67;72.07;101284.97;4964802;28;101662;-89
2022/01/26 08:00:04;;;;;;;20.83;11.40;;;;;;;4.69;72.08;101304.94;4922339;28;102207;-89
2022/01/26 08:02:39;;;;;;;20.50;12.10;;;;;;;4.69;72.15;101297.13;4949535;28;97462;-91
2022/01/26 08:05:05;;;;;;;22.50;11.83;;;;;;;4.64;72.11;101288.41;4963256;28;96947;-86
2022/01/26 08:07:31;;;;;;;20.87;11.50;;;;;;;4.70;72.29;101295.38;4980278;28;100303;-85
2022/01/26 08:09:56;;;;;;;20.37;11.80;;;;;;;4.66;72.30;101294.50;4966620;28;97249;-80
2022/01/26 08:12:22;;;;;;;20.97;11.57;;;;;;;4.64;72.04;101291.00;4957783;28;96970;-81
2022/01/26 08:14:47;;;;;;;18.33;11.37;;;;;;;4.68;72.30;101300.59;4947992;28;97195;-96
2022/01/26 08:17:16;;;;;;;19.87;11.37;;;;;;;4.64;72.56;101296.22;4965422;28;100467;-96
2022/01/26 08:19:41;;;;;;;18.17;11.00;;;;;;;4.55;72.18;101277.97;4942518;28;101612;-90
2022/01/26 08:22:07;;;;;;;17.20;11.13;;;;;;;4.67;71.98;101297.97;4944724;28;97389;-89
2022/01/26 08:24:33;;;;;;;22.23;11.57;;;;;;;4.67;72.10;101295.38;4949121;28;96943;-88
2022/01/26 08:27:05;;;;;;;16.67;11.60;;;;;;;4.72;72.13;101291.06;4965983;28;101804;-89
2022/01/26 08:29:38;;;;;;;18.93;11.77;;;;;;;4.74;71.97;101304.94;4961357;28;99183;-89
2022/01/26 08:32:04;;;;;;;17.70;11.17;;;;;;;4.64;72.01;101285.81;4965984;28;97299;-88
2022/01/26 08:34:30;;;;;;;17.13;10.17;;;;;;;4.71;71.58;101298.00;4961897;28;96881;-88
2022/01/26 08:36:55;;;;;;;16.17;9.90;;;;;;;4.66;71.73;101289.31;4963791;28;98321;-87
2022/01/26 08:39:21;;;;;;;17.27;11.17;;;;;;;4.67;71.74;101292.78;4944681;28;100315;-87
2022/01/26 08:41:47;;;;;;;15.43;10.43;;;;;;;4.68;71.92;101299.69;4945654;28;96717;-88
2022/01/26 08:44:12;;;;;;;18.23;10.20;;;;;;;4.69;71.73;101304.94;4942963;28;97563;-88
2022/01/26 08:46:38;;;;;;;19.47;10.20;;;;;;;4.69;71.53;101294.53;4960269;28;96803;-88
2022/01/26 08:49:04;;;;;;;14.37;9.77;;;;;;;4.67;71.83;101293.63;4963106;28;97638;-86
2022/01/26 08:51:30;;;;;;;17.60;9.83;;;;;;;4.69;71.98;101293.66;4921831;28;96805;-87
2022/01/26 08:53:55;;;;;;;15.57;9.90;;;;;;;4.65;71.53;101282.34;4961902;28;96777;-86
2022/01/26 08:56:21;;;;;;;14.60;9.40;;;;;;;4.65;71.59;101284.94;4945537;28;101442;-87
2022/01/26 08:58:47;;;;;;;15.70;8.83;;;;;;;4.74;72.10;101292.81;4957512;28;101257;-86
2022/01/26 09:01:13;;;;;;;14.03;8.73;;;;;;;4.76;71.97;101296.28;4915469;28;97909;-87
2022/01/26 09:03:39;;;;;;;16.33;9.80;;;;;;;4.59;71.66;101264.09;4944238;28;97259;-91
2022/01/26 09:06:09;;;;;;;16.17;10.47;;;;;;;4.68;71.81;101276.28;4970539;28;100388;-90
2022/01/26 09:08:36;;;;;;;17.43;9.43;;;;;;;4.62;71.40;101248.50;4929657;28;100170;-90
2022/01/26 09:11:03;;;;;;;13.10;8.77;;;;;;;4.78;71.37;101279.81;4965696;28;97201;-91
2022/01/26 09:13:33;;;;;;;11.93;8.47;;;;;;;4.84;71.44;101295.47;4961304;28;96882;-89
2022/01/26 09:16:02;;;;;;;13.03;8.20;;;;;;;4.90;71.60;101303.31;4926232;28;101469;-90
2022/01/26 09:18:54;;;;;;;13.23;8.70;;;;;;;4.78;71.28;101287.63;4960566;28;101028;-90
2022/01/26 09:21:13;;;;;;;11.93;7.43;;;;;;;4.80;71.28;101288.50;4934341;28;96765;-90
2022/01/26 09:23:39;;;;;;;13.30;8.17;;;;;;;4.87;70.80;101301.53;4939029;28;96880;-91
2022/01/26 09:26:04;;;;;;;12.07;8.10;;;;;;;4.89;71.23;101292.03;4971808;28;97371;-93
2022/01/26 09:28:30;;;;;;;10.23;7.47;;;;;;;4.85;71.46;101302.41;4917680;28;99900;-91
2022/01/26 09:30:56;;;;;;;12.57;7.60;;;;;;;4.96;71.10;101301.59;4960658;28;98163;-90
2022/01/26 09:33:21;;;;;;;15.37;8.10;;;;;;;4.95;71.18;101304.19;4959731;28;98154;-90
2022/01/26 09:35:47;;;;;;;13.43;8.47;;;;;;;4.95;71.17;101292.06;4935046;28;99892;-90
2022/01/26 09:38:13;;;;;;;10.93;7.40;;;;;;;4.98;70.83;101302.47;4920115;28;101724;-92
2022/01/26 09:40:38;;;;;;;11.47;7.70;;;;;;;4.97;70.41;101305.94;4946262;28;97936;-89
2022/01/26 09:43:04;;;;;;;11.47;7.73;;;;;;;4.92;70.98;101298.97;4928601;28;96896;-90
2022/01/26 09:45:34;;;;;;;17.37;8.03;;;;;;;4.98;70.91;101305.06;4946879;28;101396;-90
2022/01/26 09:48:01;;;;;;;10.93;7.57;;;;;;;4.97;70.87;101292.03;4949575;28;101582;-90
2022/01/26 09:50:26;;;;;;;12.70;7.33;;;;;;;4.99;70.56;101290.31;4920508;28;97232;-89
2022/01/26 09:52:55;;;;;;;10.70;8.03;;;;;;;4.95;70.73;101283.38;4945445;28;96787;-90
2022/01/26 09:55:21;;;;;;;15.03;8.53;;;;;;;4.76;70.83;101272.00;4968361;28;98058;-90
2022/01/26 09:57:47;;;;;;;11.33;7.93;;;;;;;4.98;70.46;101280.78;4947870;28;101940;-91
2022/01/26 10:00:13;;;;;;;11.27;7.10;;;;;;;4.94;70.53;101271.22;4971803;28;96612;-91
2022/01/26 10:02:41;;;;;;;11.30;7.60;;;;;;;4.97;70.76;101268.63;4942783;28;96677;-90
2022/01/26 10:05:10;;;;;;;11.87;7.60;;;;;;;4.99;70.62;101254.75;4952552;28;100284;-90
2022/01/26 10:08:25;;;;;;;10.90;8.00;;;;;;;5.10;70.50;101273.03;4926392;28;101535;-89
2022/01/26 10:19:03;;;;;;;11.50;7.57;;;;;;;5.08;70.33;101248.72;4962650;28;99944;-91
2022/01/26 10:21:29;;;;;;;10.27;7.40;;;;;;;5.24;69.74;101272.22;4963812;28;97139;-90
2022/01/26 10:23:58;;;;;;;11.83;7.83;;;;;;;5.21;70.11;101258.31;4964136;28;96817;-90
2022/01/26 10:26:24;;;;;;;11.67;7.70;;;;;;;5.25;70.05;101253.97;4924020;28;101535;-90
2022/01/26 10:29:03;;;;;;;11.00;7.70;;;;;;;5.21;69.88;101253.09;4917898;28;101299;-90
2022/01/26 10:31:39;;;;;;;11.73;8.30;;;;;;;5.26;69.84;101253.09;4932346;28;96758;-88
2022/01/26 10:34:17;;;;;;;12.63;8.07;;;;;;;5.29;69.78;101258.31;4942989;28;97174;-90
2022/01/26 10:36:48;;;;;;;9.80;7.33;;;;;;;5.30;69.43;101249.66;4962655;28;98445;-91
2022/01/26 10:39:32;;;;;;;10.83;8.10;;;;;;;5.36;69.42;101254.00;4965199;28;100827;-92
2022/01/26 10:42:03;;;;;;;12.30;8.07;;;;;;;5.37;69.64;101258.34;4934901;28;97573;-90
2022/01/26 10:44:33;;;;;;;11.73;8.07;;;;;;;5.43;69.52;101269.63;4939451;28;97419;-90
2022/01/26 10:47:01;;;;;;;11.50;7.23;;;;;;;5.39;69.55;101246.22;4962987;28;98572;-87
2022/01/26 10:50:08;;;;;;;10.73;7.57;;;;;;;5.40;69.62;101247.94;4949805;28;98133;-90
2022/01/26 10:52:36;;;;;;;10.45;7.32;;;;;;;5.47;69.24;101262.72;4942363;28;97167;-89
2022/01/26 10:55:06;;;;;;;9.63;7.30;;;;;;;5.49;68.66;101258.38;4961216;28;96781;-89
2022/01/26 10:57:33;;;;;;;7.50;5.47;;;;;;;5.47;68.67;101252.31;4919654;28;100954;-89
2022/01/26 10:59:59;;;;;;;12.77;6.53;;;;;;;5.35;68.25;101247.03;4970600;28;101138;-88
2022/01/26 11:02:29;;;;;;;7.33;5.57;;;;;;;5.30;68.10;101234.03;4961394;28;96875;-89
2022/01/26 11:04:55;;;;;;;7.97;5.63;;;;;;;5.38;68.27;101234.94;4941787;28;96850;-89
2022/01/26 11:07:31;;;;;;;11.20;6.30;;;;;;;5.36;67.93;101254.00;4932500;28;102759;-89
2022/01/26 11:10:01;;;;;;;7.00;5.57;;;;;;;5.22;68.30;101228.81;4930934;28;102010;-89
2022/01/26 11:12:29;;;;;;;8.47;5.90;;;;;;;5.31;68.05;101259.19;4951402;28;96788;-90
2022/01/26 11:15:04;;;;;;;8.80;6.30;;;;;;;5.32;68.27;101257.44;4945425;28;97985;-89
2022/01/26 11:17:36;;;;;;;7.10;5.83;;;;;;;5.32;68.26;101260.06;4962989;28;101030;-90
2022/01/26 11:20:21;;;;;;;8.30;6.13;;;;;;;5.36;68.35;101257.47;4944432;28;100497;-91
2022/01/26 11:22:55;;;;;;;9.13;6.20;;;;;;;5.32;68.32;101245.31;4946403;28;97397;-91
2022/01/26 11:25:23;;;;;;;7.50;5.53;;;;;;;5.07;67.97;101212.28;4945309;28;97448;-92
2022/01/26 11:27:51;;;;;;;9.33;6.37;;;;;;;5.12;67.94;101229.66;4933991;28;100943;-93
2022/01/26 11:30:30;;;;;;;9.33;6.70;;;;;;;5.29;68.14;101254.84;4948616;28;98489;-92
2022/01/26 11:32:58;;;;;;;10.73;6.97;;;;;;;5.29;68.49;101263.53;4948477;28;98193;-92
2022/01/26 11:35:26;;;;;;;8.87;6.53;;;;;;;5.14;68.20;101222.69;4959444;28;96839;-94
2022/01/26 11:38:05;;;;;;;9.63;7.37;;;;;;;5.24;68.24;101239.22;4930814;28;100586;-91
2022/01/26 11:46:29;;;;;;;12.10;8.07;;;;;;;5.21;68.15;101241.84;4944219;28;96989;-89
2022/01/26 11:49:05;;;;;;;9.63;6.73;;;;;;;5.18;67.93;101236.63;4971288;28;101646;-90
2022/01/26 11:51:46;;;;;;;11.37;7.13;;;;;;;5.19;68.00;101251.34;4981988;28;98111;-85
2022/01/26 11:54:28;;;;;;;12.73;7.83;;;;;;;5.17;67.86;101243.53;4940347;28;97510;-86
2022/01/26 11:57:08;;;;;;;10.13;7.33;;;;;;;5.12;68.01;101246.97;4955754;28;96758;-86
2022/01/26 11:59:38;;;;;;;10.37;7.17;;;;;;;5.09;67.76;101226.16;4934350;28;101283;-87
2022/01/26 12:02:18;;;;;;;12.53;7.40;;;;;;;5.06;68.46;101221.84;4959373;28;100971;-86
2022/01/26 12:04:47;;;;;;;10.60;7.47;;;;;;;5.10;68.27;101233.13;4966438;28;97311;-86
2022/01/26 12:07:22;;;;;;;10.27;7.37;;;;;;;5.09;68.22;101218.34;4947789;28;97230;-85
2022/01/26 12:09:48;;;;;;;9.40;7.27;;;;;;;5.06;68.18;101224.44;4938958;28;101290;-85
2022/01/26 12:12:21;;;;;;;10.93;8.00;;;;;;;5.13;68.49;101236.59;4949455;28;99887;-85
2022/01/26 12:15:04;;;;;;;11.87;7.03;;;;;;;5.13;68.44;101244.41;4962819;28;96891;-87
2022/01/26 12:17:34;;;;;;;9.83;6.07;;;;;;;5.14;68.10;101234.84;4967197;28;96693;-85
2022/01/26 12:32:03;;;;;;;7.63;5.90;;;;;;;5.07;67.67;101230.50;4955671;28;100672;-92
2022/01/26 12:37:17;;;;;;;7.23;4.83;;;;;;;5.01;67.57;101215.75;4952906;28;96779;-89
2022/01/26 12:45:05;;;;;;;6.83;5.13;;;;;;;5.14;67.43;101214.91;4956377;28;98416;-84
2022/01/26 12:47:32;;;;;;;6.07;4.37;;;;;;;5.20;67.52;101220.09;4949279;28;97633;-91
2022/01/26 12:49:58;;;;;;;7.23;4.67;;;;;;;5.19;67.22;101225.34;4920375;28;98032;-90
2022/01/26 12:52:24;;;;;;;5.73;4.17;;;;;;;5.07;67.12;101200.16;4956914;28;101397;-94
2022/01/26 12:54:50;;;;;;;8.27;4.10;;;;;;;5.13;67.74;101207.09;4940513;28;98369;-93
2022/01/26 12:57:15;;;;;;;5.50;4.00;;;;;;;5.22;67.51;101213.19;4950326;28;96830;-89
2022/01/26 12:59:43;;;;;;;6.57;4.60;;;;;;;5.15;67.01;101208.84;4929036;28;97282;-93
2022/01/26 13:02:09;;;;;;;7.43;4.83;;;;;;;5.07;67.88;101207.09;4913886;28;101294;-89
2022/01/26 13:04:35;;;;;;;7.07;4.73;;;;;;;5.14;67.40;101201.88;4946559;28;99042;-88
2022/01/26 13:07:01;;;;;;;5.87;4.27;;;;;;;5.19;67.70;101200.16;4920818;28;97264;-95
2022/01/26 13:09:29;;;;;;;7.77;4.77;;;;;;;5.27;67.15;101212.34;4933181;28;97545;-93
2022/01/26 13:12:00;;;;;;;6.80;4.90;;;;;;;5.24;67.41;101213.19;4942391;28;98376;-86
2022/01/26 13:14:43;;;;;;;7.17;4.27;;;;;;;5.24;66.65;101213.19;4920978;28;101387;-91
2022/01/26 13:31:34;;;;;;;6.23;3.77;;;;;;;5.01;67.25;101202.72;4962415;28;96803;-91
2022/01/26 13:34:34;;;;;;;6.70;4.37;;;;;;;5.03;67.17;101200.13;4975041;28;100207;-91
2022/01/26 13:37:17;;;;;;;5.90;4.57;;;;;;;5.14;67.06;101208.81;4978706;28;101959;-90
2022/01/26 13:40:52;;;;;;;9.33;5.00;;;;;;;4.91;67.28;101173.19;4943596;28;97745;-86
2022/01/26 13:48:16;;;;;;;6.53;3.97;;;;;;;4.97;67.04;101195.75;4961942;28;97615;-83
2022/01/26 13:50:49;;;;;;;6.57;4.47;;;;;;;5.01;67.09;101197.53;4956952;28;97241;-86